Time;durP1;ratioP1;P1;durP2;ratioP2;P2;SDS_P1;SDS_P2;PMS_P1;PMS_P2;Temp;Humidity;BMP_temperature;BMP_pressure;BME280_temperature;BME280_humidity;BME280_pressure;Samples;Min_cycle;Max_cycle;Signal;HPM_P1;HPM_P2
2023/06/20 00:02:22;;;;;;;9.43;5.78;;;23.10;63.00;;;22.51;52.46;100134.09;4956123;28;20138;-78
2023/06/20 00:04:50;;;;;;;8.50;5.57;;;23.10;63.00;;;22.50;52.48;100138.72;4962147;28;20043;-77
2023/06/20 00:07:17;;;;;;;12.27;6.05;;;23.10;62.80;;;22.52;52.36;100141.16;4953743;28;20039;-77
2023/06/20 00:09:44;;;;;;;11.05;6.45;;;23.00;62.80;;;22.51;52.67;100129.47;4971912;28;20112;-77
2023/06/20 00:12:13;;;;;;;9.60;6.68;;;23.00;62.80;;;22.51;52.69;100136.81;4961072;28;20068;-77
2023/06/20 00:14:40;;;;;;;7.85;5.72;;;23.00;63.00;;;22.50;53.00;100132.50;4937327;28;20131;-77
2023/06/20 00:17:08;;;;;;;9.18;6.07;;;23.00;63.20;;;22.49;53.23;100134.38;4952540;28;20411;-78
2023/06/20 00:19:35;;;;;;;10.25;5.90;;;23.00;63.80;;;22.48;53.79;100140.13;4968548;28;20562;-77
2023/06/20 00:22:03;;;;;;;8.68;5.97;;;23.00;63.90;;;22.47;53.53;100133.88;4956481;28;20595;-78
2023/06/20 00:24:32;;;;;;;9.98;6.45;;;23.00;64.00;;;22.47;53.67;100128.44;4942291;28;20035;-78
2023/06/20 00:27:00;;;;;;;12.02;6.28;;;23.00;64.00;;;22.47;53.54;100133.09;4933939;29;20052;-78
2023/06/20 00:29:28;;;;;;;9.82;6.40;;;23.00;64.10;;;22.45;53.94;100127.94;4931787;29;20146;-78
2023/06/20 00:31:56;;;;;;;8.25;6.00;;;23.00;64.20;;;22.45;53.85;100130.66;4933746;29;20071;-77
2023/06/20 00:34:23;;;;;;;8.88;6.25;;;23.00;64.40;;;22.44;54.08;100133.66;4952223;28;20051;-78
2023/06/20 00:36:51;;;;;;;10.52;6.40;;;23.00;64.40;;;22.43;53.71;100127.44;4942688;28;20515;-77
2023/06/20 00:39:18;;;;;;;10.25;6.50;;;23.00;64.10;;;22.43;53.54;100122.00;4963093;23;20049;-84
2023/06/20 00:41:47;;;;;;;12.32;6.82;;;23.00;64.20;;;22.45;53.93;100121.69;4950491;28;20051;-84
2023/06/20 00:44:14;;;;;;;10.10;6.32;;;23.00;64.20;;;22.45;53.68;100119.81;4951655;28;20539;-84
2023/06/20 00:46:43;;;;;;;10.93;6.55;;;23.00;64.40;;;22.43;53.65;100116.56;4951439;28;20070;-84
2023/06/20 00:49:11;;;;;;;9.43;6.80;;;23.00;64.50;;;22.44;53.48;100126.31;4951851;28;20038;-83
2023/06/20 00:51:39;;;;;;;12.02;6.50;;;23.00;64.20;;;22.46;53.70;100117.88;4933052;29;20082;-85
2023/06/20 00:54:06;;;;;;;10.10;6.53;;;23.00;64.40;;;22.46;53.31;100113.25;4948074;28;20051;-83
2023/06/20 00:56:34;;;;;;;10.32;6.45;;;23.00;63.90;;;22.47;53.32;100114.84;4926962;29;20054;-86
2023/06/20 00:59:03;;;;;;;10.63;6.70;;;23.00;64.00;;;22.48;53.04;100110.22;4934563;29;20082;-83
2023/06/20 01:01:31;;;;;;;9.80;6.45;;;23.00;63.70;;;22.50;53.22;100108.84;4952067;28;20424;-83
2023/06/20 01:04:01;;;;;;;8.38;6.10;;;23.00;63.80;;;22.52;53.04;100108.53;4949733;28;20063;-84
2023/06/20 01:06:42;;;;;;;9.50;6.60;;;23.00;63.40;;;22.53;52.98;100104.69;4950875;29;20057;-86
2023/06/20 01:09:16;;;;;;;;;;;23.00;63.50;;;22.53;53.26;100104.69;4948123;28;20103;-82
2023/06/20 01:11:54;;;;;;;9.45;6.70;;;23.00;63.80;;;22.52;53.40;100101.19;4932510;29;19934;-83
2023/06/20 01:14:31;;;;;;;9.65;6.47;;;23.00;64.00;;;22.51;53.74;100107.72;4950887;28;20550;-85
2023/06/20 01:17:02;;;;;;;12.35;6.72;;;23.10;64.30;;;22.50;53.87;100100.69;4934106;28;20443;-83
2023/06/20 01:22:42;;;;;;;11.00;6.35;;;23.10;64.60;;;22.49;53.88;100096.31;5104847;27;21025;-82
2023/06/20 01:25:18;;;;;;;9.15;6.35;;;23.10;64.60;;;22.49;53.82;100100.97;5100675;28;20136;-85
2023/06/20 01:28:06;;;;;;;9.60;6.53;;;23.10;64.60;;;22.48;54.10;100094.72;5084232;28;20052;-84
2023/06/20 01:30:43;;;;;;;9.57;6.75;;;23.00;64.60;;;22.47;53.82;100090.41;5065182;28;20835;-83
2023/06/20 01:33:13;;;;;;;9.82;6.47;;;23.00;64.40;;;22.48;53.49;100099.34;5083118;28;20076;-84
2023/06/20 01:35:43;;;;;;;9.18;6.22;;;23.10;64.20;;;22.49;53.12;100088.16;5080193;28;20058;-84
2023/06/20 01:38:14;;;;;;;9.40;6.40;;;23.00;63.80;;;22.49;53.42;100093.59;5081121;28;20080;-83
2023/06/20 01:40:49;;;;;;;10.55;6.40;;;23.00;64.00;;;22.48;53.88;100092.00;5085314;28;20040;-83
2023/06/20 01:43:19;;;;;;;9.93;6.40;;;23.00;64.50;;;22.47;54.32;100089.59;5117263;27;20207;-84
2023/06/20 01:45:51;;;;;;;9.60;6.72;;;23.00;64.80;;;22.46;54.42;100094.22;5079091;28;20036;-83
2023/06/20 01:48:21;;;;;;;8.98;6.40;;;23.00;65.00;;;22.45;54.48;100092.63;5084030;28;20040;-84
2023/06/20 01:50:49;;;;;;;11.85;6.53;;;23.00;64.80;;;22.46;53.75;100104.28;5097807;28;20131;-84
2023/06/20 01:53:19;;;;;;;10.77;6.55;;;23.00;64.70;;;22.45;53.66;100108.94;5081809;28;20121;-83
2023/06/20 01:55:49;;;;;;;9.15;5.90;;;23.00;64.60;;;22.45;53.86;100108.94;5115356;27;20067;-82
2023/06/20 01:58:18;;;;;;;9.68;6.10;;;23.00;64.50;;;22.44;53.83;100099.13;5082874;28;20126;-84
2023/06/20 02:00:46;;;;;;;10.68;6.07;;;23.00;64.40;;;22.45;53.67;100102.66;5083779;28;20043;-84
2023/06/20 02:03:14;;;;;;;11.07;6.25;;;23.00;64.40;;;22.45;54.42;100103.50;5085137;28;20747;-83
2023/06/20 02:05:42;;;;;;;10.27;6.10;;;23.00;64.90;;;22.45;54.90;100100.78;5083148;28;20052;-82
2023/06/20 02:08:12;;;;;;;10.95;6.35;;;23.00;65.50;;;22.42;55.23;100098.66;5083679;28;20122;-85
2023/06/20 02:10:42;;;;;;;9.77;6.65;;;23.00;66.20;;;22.41;55.20;100098.94;5075989;28;20439;-84
2023/06/20 02:13:12;;;;;;;11.57;6.32;;;23.00;65.90;;;22.40;55.35;100098.16;5083543;28;20059;-83
2023/06/20 02:15:41;;;;;;;9.25;6.70;;;23.00;66.20;;;22.39;55.41;100093.00;5083737;28;20040;-84
2023/06/20 02:18:09;;;;;;;10.05;6.30;;;23.00;66.40;;;22.38;55.61;100092.19;5080765;28;20091;-84
2023/06/20 02:20:36;;;;;;;9.55;6.10;;;22.90;66.60;;;22.38;55.88;100099.53;5084102;28;20044;-83
2023/06/20 02:23:07;;;;;;;10.52;6.70;;;22.90;66.60;;;22.36;55.79;100094.41;5084208;28;20060;-84
2023/06/20 02:25:38;;;;;;;10.88;6.75;;;22.90;66.60;;;22.35;55.43;100090.88;5066455;28;20068;-84
2023/06/20 02:28:12;;;;;;;8.68;6.45;;;22.90;66.50;;;22.36;55.64;100097.13;5083064;28;20052;-83
2023/06/20 02:30:40;;;;;;;10.88;6.40;;;22.90;66.40;;;22.37;55.31;100098.72;5083889;28;20503;-83
2023/06/20 02:33:09;;;;;;;9.85;6.30;;;22.90;66.20;;;22.37;54.99;100096.03;5056110;28;20048;-82
2023/06/20 02:35:39;;;;;;;;;;;22.90;66.00;;;22.36;54.92;100097.94;5070064;28;20076;-83
2023/06/20 02:38:07;;;;;;;10.50;6.80;;;22.90;65.80;;;22.38;54.89;100102.25;5068684;28;19924;-83
2023/06/20 02:40:37;;;;;;;9.35;6.78;;;22.90;65.80;;;22.38;54.79;100092.19;5073785;28;20048;-83
2023/06/20 02:43:06;;;;;;;9.60;6.23;;;22.90;65.80;;;22.38;54.61;100096.81;5068765;28;20064;-84
2023/06/20 02:45:35;;;;;;;8.48;6.03;;;22.90;65.60;;;22.39;54.72;100093.78;5063117;28;20512;-83
2023/06/20 02:48:21;;;;;;;9.23;6.15;;;22.90;65.70;;;22.39;54.94;100090.28;5071389;28;20037;-83
2023/06/20 02:51:06;;;;;;;10.45;6.50;;;22.90;65.80;;;22.38;55.16;100091.38;5062477;28;20067;-82
2023/06/20 02:53:44;;;;;;;8.85;6.57;;;22.90;66.20;;;22.36;56.03;100094.41;5069002;28;20051;-82
2023/06/20 02:56:14;;;;;;;10.18;6.80;;;22.90;67.00;;;22.34;55.77;100097.41;5069374;28;20053;-84
2023/06/20 02:58:47;;;;;;;11.40;5.93;;;22.90;67.00;;;22.34;55.52;100096.59;5080216;28;20044;-83
2023/06/20 03:01:23;;;;;;;11.40;6.40;;;22.90;66.80;;;22.33;55.46;100100.44;5083050;28;20134;-84
2023/06/20 03:03:52;;;;;;;11.82;6.18;;;22.90;66.60;;;22.32;56.20;100099.63;5069101;28;20112;-83
2023/06/20 03:06:27;;;;;;;10.30;6.57;;;22.90;67.20;;;22.31;56.18;100103.47;5058406;28;20048;-84
2023/06/20 03:08:57;;;;;;;14.52;6.22;;;22.90;67.20;;;22.32;56.18;100105.06;5063880;28;20592;-84
2023/06/20 03:11:25;;;;;;;9.57;6.97;;;22.90;67.20;;;22.32;56.40;100096.91;5067745;28;20048;-82
2023/06/20 03:13:52;;;;;;;10.95;6.90;;;22.90;67.30;;;22.32;56.48;100104.25;5068853;28;20048;-84
2023/06/20 03:16:21;;;;;;;9.85;6.70;;;22.90;67.70;;;22.31;56.64;100102.66;5062884;28;20048;-82
2023/06/20 03:18:48;;;;;;;10.18;6.38;;;22.90;67.70;;;22.30;57.18;100103.72;5067794;28;20064;-84
2023/06/20 03:21:16;;;;;;;14.52;7.10;;;22.90;68.50;;;22.29;57.33;100099.41;5068207;28;20083;-84
2023/06/20 03:23:45;;;;;;;9.75;7.10;;;22.90;68.60;;;22.26;57.56;100114.41;5068672;28;20063;-84
2023/06/20 03:26:12;;;;;;;10.45;6.60;;;22.90;68.70;;;22.25;57.54;100111.97;5067976;28;20406;-84
2023/06/20 03:28:39;;;;;;;9.15;6.20;;;22.80;68.90;;;22.24;57.83;100107.66;5068847;28;20058;-84
2023/06/20 03:31:07;;;;;;;8.02;6.00;;;22.80;69.10;;;22.22;57.96;100116.09;5068000;28;20536;-84
2023/06/20 03:33:35;;;;;;;9.57;6.60;;;22.80;69.30;;;22.20;58.09;100106.63;5061510;28;20064;-85
2023/06/20 03:36:03;;;;;;;11.32;6.63;;;22.80;69.30;;;22.17;57.99;100107.25;5068215;28;20511;-83
2023/06/20 03:38:30;;;;;;;11.35;6.82;;;22.80;69.40;;;22.15;58.06;100115.66;5064684;28;20076;-85
2023/06/20 03:40:58;;;;;;;10.27;6.55;;;22.80;69.50;;;22.14;58.37;100114.06;5069577;28;20484;-82
2023/06/20 03:43:25;;;;;;;12.85;6.30;;;22.80;69.90;;;22.14;58.22;100124.13;5068151;28;20048;-82
2023/06/20 03:45:53;;;;;;;11.90;6.50;;;22.70;69.90;;;22.13;58.58;100119.81;5068528;28;20055;-84
2023/06/20 03:48:21;;;;;;;12.45;6.68;;;22.70;70.10;;;22.12;58.79;100126.34;5067046;28;20071;-84
2023/06/20 03:50:50;;;;;;;10.07;6.88;;;22.70;70.60;;;22.09;58.95;100127.69;5067242;28;20051;-82
2023/06/20 03:53:18;;;;;;;10.88;6.53;;;22.70;70.70;;;22.08;58.94;100124.19;5092217;28;20479;-83
2023/06/20 03:55:46;;;;;;;11.35;7.30;;;22.70;70.70;;;22.07;59.46;100124.47;5069802;28;20036;-83
2023/06/20 03:58:14;;;;;;;12.88;6.68;;;22.70;71.20;;;22.06;59.51;100131.81;5092063;28;20048;-81
2023/06/20 04:00:41;;;;;;;10.48;6.78;;;22.70;71.10;;;22.05;59.71;100123.94;5067909;28;20068;-80
2023/06/20 04:03:08;;;;;;;14.70;7.03;;;22.70;71.50;;;22.05;59.75;100126.66;5066724;28;20041;-81
2023/06/20 04:05:36;;;;;;;13.07;6.82;;;22.70;71.60;;;22.04;59.87;100115.00;5067861;28;20149;-81
2023/06/20 04:08:05;;;;;;;9.25;6.72;;;22.70;71.50;;;22.05;59.64;100121.22;5067913;28;20044;-80
2023/06/20 04:10:32;;;;;;;11.85;6.68;;;22.70;71.50;;;22.05;59.82;100111.19;5074301;28;20079;-80
2023/06/20 04:12:59;;;;;;;9.43;6.47;;;22.70;71.50;;;22.06;59.69;100112.81;5062233;28;20037;-79
2023/06/20 04:15:29;;;;;;;9.95;5.90;;;22.70;71.50;;;22.06;59.46;100104.66;5068002;28;20060;-83
2023/06/20 04:17:57;;;;;;;9.20;5.70;;;22.70;71.20;;;22.08;58.78;100105.16;5067111;28;20048;-82
2023/06/20 04:20:24;;;;;;;9.90;5.82;;;22.70;70.90;;;22.09;59.47;100109.47;5058378;28;20539;-80
2023/06/20 04:22:51;;;;;;;8.30;5.57;;;22.70;71.20;;;22.11;59.80;100106.53;5067817;28;20045;-80
2023/06/20 04:25:20;;;;;;;11.05;6.47;;;22.70;71.70;;;22.13;60.19;100114.38;5069687;28;20044;-82
2023/06/20 04:27:53;;;;;;;10.35;5.97;;;22.70;71.90;;;22.13;59.89;100106.22;5067515;28;20052;-80
2023/06/20 04:30:21;;;;;;;9.88;5.80;;;22.70;71.80;;;22.15;59.79;100115.66;5067783;28;20059;-82
2023/06/20 04:32:50;;;;;;;9.85;6.30;;;22.70;71.50;;;22.16;59.57;100114.59;5066623;28;20044;-81
2023/06/20 04:35:18;;;;;;;11.45;6.50;;;22.70;71.30;;;22.19;59.52;100113.97;5067962;28;20165;-79
2023/06/20 04:37:48;;;;;;;10.90;6.20;;;22.80;71.30;;;22.21;59.58;100108.25;5065087;28;20044;-78
2023/06/20 04:40:16;;;;;;;12.90;6.10;;;22.80;71.60;;;22.23;59.57;100098.69;5060827;28;20053;-78
2023/06/20 04:42:45;;;;;;;15.07;6.05;;;22.80;71.10;;;22.24;58.67;100103.03;5067323;28;20044;-83
2023/06/20 04:45:12;;;;;;;9.88;6.07;;;22.80;70.70;;;22.25;58.85;100112.81;5069274;28;20519;-85
2023/06/20 04:47:41;;;;;;;8.85;5.78;;;22.80;70.90;;;22.27;59.29;100118.75;5060448;28;20139;-85
2023/06/20 04:50:09;;;;;;;9.77;5.93;;;22.90;71.10;;;22.29;59.51;100126.59;5061368;28;20052;-83
2023/06/20 04:52:37;;;;;;;9.38;5.85;;;22.90;71.40;;;22.30;59.54;100139.06;5066573;28;20040;-84
2023/06/20 04:55:05;;;;;;;10.68;5.95;;;22.90;71.40;;;22.30;59.15;100139.06;5068642;28;20495;-84
2023/06/20 04:57:34;;;;;;;9.45;5.53;;;22.90;71.10;;;22.30;59.13;100134.47;5068097;28;20040;-81
2023/06/20 05:00:07;;;;;;;8.57;5.35;;;22.90;71.30;;;22.32;59.25;100139.59;5064151;28;20040;-81
2023/06/20 05:02:35;;;;;;;9.43;5.55;;;22.90;70.90;;;22.33;58.87;100139.28;5079890;28;20367;-82
2023/06/20 05:05:03;;;;;;;8.50;5.18;;;22.90;70.50;;;22.35;58.41;100138.97;5066176;28;20045;-82
2023/06/20 05:07:30;;;;;;;7.93;5.03;;;22.90;70.50;;;22.36;58.51;100148.75;5095078;28;20143;-83
2023/06/20 05:09:57;;;;;;;8.05;5.18;;;22.90;70.40;;;22.38;58.25;100148.44;5066506;28;20448;-81
2023/06/20 05:12:24;;;;;;;9.68;5.30;;;23.00;70.10;;;22.39;58.62;100142.72;5065933;28;20813;-82
2023/06/20 05:14:52;;;;;;;9.05;5.65;;;23.00;70.50;;;22.40;59.37;100133.47;5067821;28;20127;-81
2023/06/20 05:17:20;;;;;;;9.60;5.63;;;23.00;70.90;;;22.40;59.80;100128.03;5068844;28;20124;-81
2023/06/20 05:19:47;;;;;;;9.57;5.40;;;23.00;71.30;;;22.40;59.21;100125.31;5066976;28;20087;-81
2023/06/20 05:22:15;;;;;;;10.02;5.30;;;23.00;71.20;;;22.43;59.00;100126.63;5064246;28;20143;-83
2023/06/20 05:24:42;;;;;;;10.35;5.43;;;23.00;70.50;;;22.46;58.55;100135.00;5061664;28;20411;-83
2023/06/20 05:27:09;;;;;;;7.75;5.32;;;23.00;70.40;;;22.48;58.88;100130.06;5063892;28;20048;-81
2023/06/20 05:29:36;;;;;;;8.85;5.25;;;23.10;71.70;;;22.52;59.07;100131.06;5066787;28;20048;-83
2023/06/20 05:32:04;;;;;;;9.65;5.72;;;23.10;71.30;;;22.53;60.16;100131.88;5068410;28;20125;-83
2023/06/20 05:34:34;;;;;;;10.43;5.57;;;23.10;72.20;;;22.53;60.26;100129.97;5067087;28;20040;-80
2023/06/20 05:37:01;;;;;;;9.43;5.53;;;23.10;72.40;;;22.55;60.41;100130.50;5065796;28;20144;-80
2023/06/20 05:39:28;;;;;;;8.65;5.30;;;23.20;72.80;;;22.59;60.54;100145.09;5065768;28;20042;-81
2023/06/20 05:41:56;;;;;;;8.80;5.30;;;23.20;72.60;;;22.63;59.43;100148.00;5066450;28;20036;-81
2023/06/20 05:44:23;;;;;;;11.02;5.38;;;23.20;71.40;;;22.66;58.99;100154.78;5066740;28;20048;-81
2023/06/20 05:46:51;;;;;;;10.65;5.20;;;23.20;71.00;;;22.71;59.17;100149.25;5065917;28;20048;-81
2023/06/20 05:49:21;;;;;;;8.18;5.07;;;23.30;71.30;;;22.73;60.41;100142.38;5064690;28;20079;-83
2023/06/20 05:51:49;;;;;;;7.05;5.03;;;23.30;72.80;;;22.77;60.53;100148.03;5067116;28;20497;-82
2023/06/20 05:54:17;;;;;;;7.90;4.95;;;23.40;72.50;;;22.79;59.46;100143.91;5066719;28;20075;-83
2023/06/20 05:56:44;;;;;;;8.88;5.13;;;23.40;71.90;;;22.83;59.80;100146.81;5063381;28;20124;-81
2023/06/20 05:59:11;;;;;;;8.10;4.88;;;23.50;72.30;;;22.86;58.81;100147.03;5067398;28;20068;-82
2023/06/20 06:01:40;;;;;;;7.38;4.80;;;23.50;71.10;;;22.91;58.42;100150.81;5064755;28;20142;-81
2023/06/20 06:04:07;;;;;;;10.02;4.82;;;23.50;70.80;;;22.95;58.74;100149.09;5068011;28;20048;-81
2023/06/20 06:06:34;;;;;;;8.07;4.50;;;23.60;71.00;;;22.98;58.51;100148.47;5068036;28;20044;-81
2023/06/20 06:09:04;;;;;;;8.10;4.60;;;23.60;70.70;;;23.01;58.03;100148.69;5070933;28;20143;-83
2023/06/20 06:11:31;;;;;;;8.20;4.47;;;23.60;70.30;;;23.05;58.62;100143.44;5070685;28;20040;-82
2023/06/20 06:13:58;;;;;;;7.90;4.25;;;23.70;70.60;;;23.08;58.02;100143.66;5069691;28;20040;-82
2023/06/20 06:16:25;;;;;;;7.65;4.28;;;23.70;70.00;;;23.10;57.57;100136.00;5070027;28;20071;-81
2023/06/20 06:18:53;;;;;;;9.50;3.97;;;23.70;69.60;;;23.12;57.46;100139.19;5071844;28;20068;-82
2023/06/20 06:21:20;;;;;;;8.90;4.30;;;23.80;69.50;;;23.16;57.16;100139.41;5069390;28;20068;-82
2023/06/20 06:23:47;;;;;;;7.57;4.25;;;23.80;69.00;;;23.20;56.95;100148.59;5070284;28;20072;-83
2023/06/20 06:26:16;;;;;;;9.85;4.60;;;23.80;68.70;;;23.24;57.49;100146.06;5070152;28;20045;-82
2023/06/20 06:28:43;;;;;;;7.70;4.57;;;23.80;69.40;;;23.24;57.17;100151.50;5069468;28;20047;-82
2023/06/20 06:31:13;;;;;;;5.90;4.18;;;23.90;69.10;;;23.28;57.29;100157.97;5064411;28;20090;-81
2023/06/20 06:33:41;;;;;;;6.47;4.60;;;23.90;69.10;;;23.32;57.51;100156.22;5069247;28;20481;-81
2023/06/20 06:36:09;;;;;;;6.80;4.45;;;23.90;69.30;;;23.35;57.12;100152.91;5070493;28;20041;-82
2023/06/20 06:38:37;;;;;;;7.05;4.80;;;24.00;68.70;;;23.38;56.72;100160.47;5073405;22;20075;-80
2023/06/20 06:41:06;;;;;;;9.20;4.78;;;24.00;68.30;;;23.43;56.93;100162.28;5026911;28;20116;-80
2023/06/20 06:43:35;;;;;;;7.22;4.75;;;24.10;68.90;;;23.48;57.67;100162.97;5032645;28;20118;-81
2023/06/20 06:46:02;;;;;;;9.38;4.95;;;24.10;69.60;;;23.53;56.94;100154.69;5013444;28;20076;-80
2023/06/20 06:48:29;;;;;;;8.15;4.82;;;24.20;68.70;;;23.63;57.63;100149.06;5031024;28;20490;-81
2023/06/20 06:50:57;;;;;;;8.50;4.75;;;24.30;69.60;;;23.69;57.35;100152.47;5030384;28;20064;-80
2023/06/20 06:53:25;;;;;;;7.90;4.80;;;24.40;69.10;;;23.82;57.43;100145.38;5028405;28;20045;-80
2023/06/20 06:55:53;;;;;;;9.93;5.15;;;24.50;68.90;;;23.97;57.31;100147.75;5022403;28;20127;-80
2023/06/20 06:58:20;;;;;;;7.43;5.00;;;24.60;68.90;;;24.02;56.31;100146.81;5017722;28;20124;-80
2023/06/20 07:00:49;;;;;;;8.23;4.47;;;24.70;67.90;;;24.02;56.09;100134.00;5024003;28;20134;-80
2023/06/20 07:03:16;;;;;;;6.75;4.53;;;24.70;67.40;;;24.06;56.11;100129.56;5028303;28;20099;-80
2023/06/20 07:05:43;;;;;;;8.10;5.03;;;24.70;67.60;;;24.25;56.57;100137.50;5020104;28;20109;-80
2023/06/20 07:08:10;;;;;;;8.50;4.60;;;24.90;67.90;;;24.44;55.92;100131.09;5010208;28;20040;-80
2023/06/20 07:10:37;;;;;;;9.23;5.00;;;25.10;67.20;;;24.57;55.52;100132.94;5010337;28;20049;-80
2023/06/20 07:13:05;;;;;;;6.55;4.57;;;25.20;66.70;;;24.66;55.57;100125.59;5023734;28;20125;-80
2023/06/20 07:15:33;;;;;;;8.38;5.00;;;25.30;66.40;;;24.78;55.92;100131.25;5024928;28;20037;-80
2023/06/20 07:18:01;;;;;;;7.30;4.95;;;25.40;66.80;;;24.90;54.70;100133.41;5029857;28;20122;-80
2023/06/20 07:20:29;;;;;;;8.43;4.80;;;25.50;65.50;;;25.03;54.04;100128.94;5013992;28;20449;-80
2023/06/20 07:22:56;;;;;;;9.48;4.50;;;25.70;64.60;;;25.16;53.76;100128.88;5025160;28;20053;-80
2023/06/20 07:25:23;;;;;;;10.30;4.68;;;25.90;63.70;;;25.29;52.04;100129.88;5018664;28;20136;-80
2023/06/20 07:27:50;;;;;;;7.60;4.40;;;25.90;62.00;;;25.43;52.73;100127.81;5024507;28;20116;-80
2023/06/20 07:30:18;;;;;;;6.97;4.63;;;26.10;63.10;;;25.56;52.05;100119.78;5021700;28;20137;-80
2023/06/20 07:32:47;;;;;;;6.80;4.70;;;26.20;62.40;;;25.66;51.50;100123.00;5014163;28;20103;-80
2023/06/20 07:35:15;;;;;;;10.07;5.07;;;26.30;61.80;;;25.77;51.69;100117.25;5022081;28;20050;-80
2023/06/20 07:37:43;;;;;;;7.88;5.18;;;26.40;61.40;;;25.84;51.23;100118.38;5021528;28;20061;-80
2023/06/20 07:40:12;;;;;;;7.47;4.85;;;26.50;61.00;;;25.90;51.26;100113.56;5020939;28;20052;-80
2023/06/20 07:42:39;;;;;;;7.00;4.85;;;26.60;61.20;;;25.97;51.25;100116.63;5008871;28;20157;-80
2023/06/20 07:45:08;;;;;;;7.25;4.53;;;26.60;60.60;;;26.04;50.56;100114.19;5008758;28;20089;-80
2023/06/20 07:47:35;;;;;;;8.07;4.95;;;26.70;60.00;;;26.09;50.25;100105.00;5027720;28;20041;-80
2023/06/20 07:50:03;;;;;;;8.05;4.50;;;26.80;59.40;;;26.16;49.65;100103.41;5025837;28;20053;-80
2023/06/20 07:52:33;;;;;;;6.75;4.80;;;26.80;59.00;;;26.24;50.53;100096.28;5040768;28;20072;-80
2023/06/20 07:55:01;;;;;;;7.03;4.95;;;26.90;59.40;;;26.32;50.89;100097.41;5021379;28;20041;-80
2023/06/20 07:57:28;;;;;;;8.32;4.93;;;27.00;60.30;;;26.39;49.37;100093.03;5023519;28;20045;-79
2023/06/20 07:59:55;;;;;;;7.00;5.00;;;27.10;58.60;;;26.46;48.95;100092.59;5029909;28;20048;-80
2023/06/20 08:02:22;;;;;;;7.95;5.53;;;27.10;57.90;;;26.52;48.88;100085.78;5025910;28;20083;-78
2023/06/20 08:04:50;;;;;;;10.02;4.70;;;27.20;58.40;;;26.54;48.85;100083.53;5030197;28;20029;-78
2023/06/20 08:07:17;;;;;;;9.38;4.80;;;27.20;58.30;;;26.58;49.19;100079.00;5028511;28;20103;-78
2023/06/20 08:09:45;;;;;;;9.30;4.43;;;27.30;58.50;;;26.61;48.94;100075.63;5023649;28;20065;-78
2023/06/20 08:12:13;;;;;;;8.95;5.28;;;27.30;57.90;;;26.64;49.09;100080.44;5024723;28;20050;-78
2023/06/20 08:14:40;;;;;;;7.15;5.05;;;27.30;58.00;;;26.66;49.03;100080.91;5024461;28;20057;-78
2023/06/20 08:17:07;;;;;;;6.20;4.72;;;27.40;57.90;;;26.74;48.70;100083.94;5024705;28;20130;-78
2023/06/20 08:19:34;;;;;;;7.65;4.90;;;27.40;57.90;;;26.78;47.18;100076.66;5027285;28;20056;-78
2023/06/20 08:22:02;;;;;;;7.65;4.47;;;27.50;56.40;;;26.80;47.78;100080.69;5035080;28;20049;-78
2023/06/20 08:24:29;;;;;;;6.15;4.68;;;27.50;56.80;;;26.82;47.35;100078.41;5019295;28;20509;-78
2023/06/20 08:26:57;;;;;;;9.18;4.80;;;27.50;56.20;;;26.86;47.35;100082.09;5033636;28;20518;-78
2023/06/20 08:29:24;;;;;;;8.02;4.80;;;27.60;56.40;;;26.91;47.08;100083.84;5027966;28;20045;-78
2023/06/20 08:31:52;;;;;;;6.07;4.55;;;27.60;55.70;;;26.90;46.87;100074.84;5026649;28;20120;-78
2023/06/20 08:34:19;;;;;;;7.57;4.45;;;27.60;55.70;;;26.96;47.95;100072.72;5028216;28;20493;-77
2023/06/20 08:36:46;;;;;;;6.72;4.45;;;27.60;56.50;;;27.01;47.83;100064.31;5027764;28;20084;-78
2023/06/20 08:39:13;;;;;;;12.48;4.57;;;27.70;56.60;;;27.05;47.99;100073.47;5027237;28;20135;-79
2023/06/20 08:41:40;;;;;;;7.60;4.32;;;27.80;56.90;;;27.09;47.27;100071.72;5010265;28;20041;-78
2023/06/20 08:44:11;;;;;;;7.82;4.35;;;27.80;55.60;;;27.13;47.62;100069.09;5026212;28;20116;-80
2023/06/20 08:46:39;;;;;;;6.63;4.20;;;27.80;56.60;;;27.18;46.58;100064.25;5014715;28;20069;-79
2023/06/20 08:49:07;;;;;;;6.55;4.05;;;27.90;54.80;;;27.23;46.67;100070.63;5027666;28;20099;-80
2023/06/20 08:51:39;;;;;;;5.97;4.07;;;27.90;55.20;;;27.25;46.07;100062.91;5030269;28;20041;-79
2023/06/20 08:54:13;;;;;;;6.47;4.03;;;28.00;54.80;;;27.21;46.40;100063.56;5033454;28;20041;-79
2023/06/20 08:56:41;;;;;;;5.75;4.15;;;27.90;54.50;;;27.18;46.70;100071.63;5035791;28;20151;-79
2023/06/20 08:59:09;;;;;;;7.28;4.00;;;28.00;55.60;;;27.21;46.65;100068.25;5026811;28;20073;-78
2023/06/20 09:01:36;;;;;;;8.32;4.20;;;27.90;54.90;;;27.16;46.06;100076.66;5021288;28;20052;-78
2023/06/20 09:04:05;;;;;;;6.13;3.80;;;27.90;54.40;;;27.17;46.98;100068.09;5026819;28;20491;-78
2023/06/20 09:06:37;;;;;;;5.05;3.78;;;27.90;55.30;;;27.27;45.70;100068.84;5024422;28;20091;-78
2023/06/20 09:09:05;;;;;;;7.35;4.28;;;28.00;54.20;;;27.32;46.38;100065.91;5011904;28;20051;-78
2023/06/20 09:11:36;;;;;;;5.97;3.78;;;28.00;54.90;;;27.33;46.42;100070.25;5022906;28;20600;-77
2023/06/20 09:14:04;;;;;;;5.53;3.75;;;28.00;55.00;;;27.40;46.17;100067.78;5027990;28;20506;-78
2023/06/20 09:16:32;;;;;;;7.32;4.00;;;28.10;55.10;;;27.51;47.08;100073.66;5025830;28;20049;-78
2023/06/20 09:19:01;;;;;;;5.47;3.75;;;28.20;55.80;;;27.57;45.82;100075.84;5025993;28;20041;-77
2023/06/20 09:21:28;;;;;;;7.40;3.85;;;28.20;54.50;;;27.60;46.03;100072.44;5028140;28;20049;-77
2023/06/20 09:24:03;;;;;;;4.90;3.65;;;28.20;54.20;;;27.66;46.04;100056.59;5007021;28;20034;-78
2023/06/20 09:26:31;;;;;;;4.95;3.60;;;28.30;54.30;;;27.73;47.05;100064.34;5027774;28;20437;-77
2023/06/20 09:29:09;;;;;;;5.65;3.97;;;28.40;55.40;;;27.77;45.30;100065.25;5019671;28;20045;-77
2023/06/20 09:31:43;;;;;;;5.57;3.72;;;28.50;53.30;;;27.77;45.53;100054.28;5023394;28;20073;-77
2023/06/20 09:34:12;;;;;;;6.53;4.15;;;28.50;53.90;;;27.83;46.54;100061.19;5009118;28;20395;-77
2023/06/20 09:36:40;;;;;;;5.78;3.85;;;28.50;55.10;;;27.88;45.81;100055.47;5010040;28;20060;-77
2023/06/20 09:39:12;;;;;;;6.28;4.03;;;28.50;54.20;;;27.87;43.99;100062.09;5026714;28;20429;-77
2023/06/20 09:41:45;;;;;;;6.75;3.67;;;28.60;52.20;;;27.89;44.95;100063.34;5028051;28;20049;-77
2023/06/20 09:44:13;;;;;;;5.22;3.85;;;28.60;52.60;;;27.98;46.24;100055.84;5030415;28;20124;-77
2023/06/20 09:46:42;;;;;;;8.68;4.00;;;28.60;54.40;;;28.06;45.96;100058.84;5032827;28;20057;-77
2023/06/20 09:49:13;;;;;;;6.03;3.97;;;28.70;53.70;;;28.09;45.51;100063.66;5027964;28;20049;-77
2023/06/20 09:51:45;;;;;;;;;;;28.80;53.70;;;28.07;45.22;100060.47;5022254;28;20126;-77
2023/06/20 09:54:15;;;;;;;7.30;4.00;;;28.80;53.30;;;28.05;45.00;100060.78;5032401;28;20456;-77
2023/06/20 09:56:48;;;;;;;7.57;4.70;;;28.80;53.00;;;28.05;45.16;100062.72;5012975;28;20042;-77
2023/06/20 09:59:17;;;;;;;7.70;4.32;;;28.70;53.30;;;27.93;45.75;100058.81;5010919;28;20096;-77
2023/06/20 10:01:46;;;;;;;6.55;4.75;;;28.70;53.70;;;27.85;45.71;100053.41;5032508;28;20041;-77
2023/06/20 10:04:14;;;;;;;8.90;4.72;;;28.60;54.00;;;27.80;45.74;100054.41;5029931;28;20137;-77
2023/06/20 10:06:42;;;;;;;8.13;4.60;;;28.50;53.50;;;27.71;45.16;100059.16;5028712;28;20037;-77
2023/06/20 10:09:10;;;;;;;6.00;3.85;;;28.50;53.20;;;27.75;46.63;100053.81;5027838;28;20055;-78
2023/06/20 10:11:38;;;;;;;5.95;3.80;;;28.50;54.60;;;27.87;46.58;100054.69;5025831;28;20490;-77
2023/06/20 10:14:06;;;;;;;5.75;4.30;;;28.60;54.70;;;27.95;45.26;100050.25;5011924;28;20145;-77
2023/06/20 10:16:34;;;;;;;7.95;4.60;;;28.60;52.90;;;27.98;46.35;100049.56;5029835;28;20163;-77
2023/06/20 10:19:17;;;;;;;7.95;4.53;;;28.70;54.20;;;27.98;45.74;100049.56;5029831;28;20125;-77
2023/06/20 10:21:58;;;;;;;5.95;4.15;;;28.70;53.60;;;27.99;45.71;100059.38;5025424;28;20045;-77
2023/06/20 10:24:27;;;;;;;;;;;28.70;53.80;;;28.04;45.20;100056.44;5030750;28;20120;-77